sensor_id;sensor_type;location;lat;lon;timestamp;P1;durP1;ratioP1;P2;durP2;ratioP2
41627;SDS011;27321;50.816;6.054;2023-04-15T00:00:13;3.27;;;1.63;;
41627;SDS011;27321;50.816;6.054;2023-04-15T00:03:15;2.93;;;1.63;;
41627;SDS011;27321;50.816;6.054;2023-04-15T00:06:16;3.40;;;1.80;;
41627;SDS011;27321;50.816;6.054;2023-04-15T00:09:19;2.43;;;1.40;;
41627;SDS011;27321;50.816;6.054;2023-04-15T00:12:20;4.50;;;2.13;;
41627;SDS011;27321;50.816;6.054;2023-04-15T00:15:21;2.40;;;1.60;;
41627;SDS011;27321;50.816;6.054;2023-04-15T00:18:22;2.83;;;1.53;;
41627;SDS011;27321;50.816;6.054;2023-04-15T00:21:24;2.65;;;1.77;;
41627;SDS011;27321;50.816;6.054;2023-04-15T00:24:26;2.57;;;1.77;;
41627;SDS011;27321;50.816;6.054;2023-04-15T00:27:28;3.25;;;1.88;;
41627;SDS011;27321;50.816;6.054;2023-04-15T00:30:30;2.58;;;1.52;;
41627;SDS011;27321;50.816;6.054;2023-04-15T00:33:30;2.25;;;1.55;;
41627;SDS011;27321;50.816;6.054;2023-04-15T00:36:31;3.38;;;1.83;;
41627;SDS011;27321;50.816;6.054;2023-04-15T00:39:34;2.40;;;1.40;;
41627;SDS011;27321;50.816;6.054;2023-04-15T00:42:35;2.97;;;1.83;;
41627;SDS011;27321;50.816;6.054;2023-04-15T00:45:36;3.33;;;1.70;;
41627;SDS011;27321;50.816;6.054;2023-04-15T00:48:37;2.53;;;1.50;;
41627;SDS011;27321;50.816;6.054;2023-04-15T00:51:39;5.83;;;1.43;;
41627;SDS011;27321;50.816;6.054;2023-04-15T00:54:41;1.55;;;1.27;;
41627;SDS011;27321;50.816;6.054;2023-04-15T00:57:41;3.63;;;1.60;;
41627;SDS011;27321;50.816;6.054;2023-04-15T01:03:45;2.20;;;1.52;;
41627;SDS011;27321;50.816;6.054;2023-04-15T01:06:48;3.13;;;1.30;;
41627;SDS011;27321;50.816;6.054;2023-04-15T01:09:49;1.87;;;1.43;;
41627;SDS011;27321;50.816;6.054;2023-04-15T01:12:50;4.55;;;2.00;;
41627;SDS011;27321;50.816;6.054;2023-04-15T01:15:51;3.53;;;1.55;;
41627;SDS011;27321;50.816;6.054;2023-04-15T01:18:53;2.30;;;1.27;;
41627;SDS011;27321;50.816;6.054;2023-04-15T01:21:54;1.40;;;1.20;;
41627;SDS011;27321;50.816;6.054;2023-04-15T01:28:16;3.27;;;1.40;;
41627;SDS011;27321;50.816;6.054;2023-04-15T01:31:17;3.07;;;1.57;;
41627;SDS011;27321;50.816;6.054;2023-04-15T01:34:18;3.77;;;1.33;;
41627;SDS011;27321;50.816;6.054;2023-04-15T01:37:38;2.47;;;1.40;;
41627;SDS011;27321;50.816;6.054;2023-04-15T01:40:40;3.00;;;1.50;;
41627;SDS011;27321;50.816;6.054;2023-04-15T01:43:42;2.43;;;1.50;;
41627;SDS011;27321;50.816;6.054;2023-04-15T01:46:48;3.43;;;1.30;;
41627;SDS011;27321;50.816;6.054;2023-04-15T01:49:50;2.17;;;1.37;;
41627;SDS011;27321;50.816;6.054;2023-04-15T01:52:53;2.10;;;1.30;;
41627;SDS011;27321;50.816;6.054;2023-04-15T01:55:55;3.33;;;1.43;;
41627;SDS011;27321;50.816;6.054;2023-04-15T01:58:57;2.13;;;1.20;;
41627;SDS011;27321;50.816;6.054;2023-04-15T02:01:59;2.47;;;1.40;;
41627;SDS011;27321;50.816;6.054;2023-04-15T02:05:02;1.57;;;1.10;;
41627;SDS011;27321;50.816;6.054;2023-04-15T02:08:05;3.83;;;1.53;;
41627;SDS011;27321;50.816;6.054;2023-04-15T02:11:08;2.20;;;1.33;;
41627;SDS011;27321;50.816;6.054;2023-04-15T02:14:10;2.70;;;1.30;;
41627;SDS011;27321;50.816;6.054;2023-04-15T02:17:13;2.10;;;1.27;;
41627;SDS011;27321;50.816;6.054;2023-04-15T02:20:17;3.10;;;1.40;;
41627;SDS011;27321;50.816;6.054;2023-04-15T02:23:21;1.43;;;1.20;;
41627;SDS011;27321;50.816;6.054;2023-04-15T02:26:24;2.30;;;1.47;;
41627;SDS011;27321;50.816;6.054;2023-04-15T02:29:26;1.63;;;1.10;;
41627;SDS011;27321;50.816;6.054;2023-04-15T02:32:28;2.60;;;1.10;;
41627;SDS011;27321;50.816;6.054;2023-04-15T02:35:30;2.30;;;1.20;;
41627;SDS011;27321;50.816;6.054;2023-04-15T02:38:33;2.90;;;1.20;;
41627;SDS011;27321;50.816;6.054;2023-04-15T02:41:36;1.43;;;0.90;;
41627;SDS011;27321;50.816;6.054;2023-04-15T02:44:39;2.90;;;1.10;;
41627;SDS011;27321;50.816;6.054;2023-04-15T02:47:41;4.00;;;1.27;;
41627;SDS011;27321;50.816;6.054;2023-04-15T02:50:45;2.00;;;1.10;;
41627;SDS011;27321;50.816;6.054;2023-04-15T02:53:49;2.07;;;1.17;;
41627;SDS011;27321;50.816;6.054;2023-04-15T02:56:52;2.70;;;0.93;;
41627;SDS011;27321;50.816;6.054;2023-04-15T02:59:55;1.17;;;0.87;;
41627;SDS011;27321;50.816;6.054;2023-04-15T03:03:00;2.30;;;0.87;;
41627;SDS011;27321;50.816;6.054;2023-04-15T03:06:05;1.20;;;0.80;;
41627;SDS011;27321;50.816;6.054;2023-04-15T03:09:09;2.87;;;1.10;;
41627;SDS011;27321;50.816;6.054;2023-04-15T03:12:12;2.50;;;1.00;;
41627;SDS011;27321;50.816;6.054;2023-04-15T03:15:15;2.97;;;1.30;;
41627;SDS011;27321;50.816;6.054;2023-04-15T03:18:20;4.07;;;0.97;;
41627;SDS011;27321;50.816;6.054;2023-04-15T03:21:22;1.80;;;1.03;;
41627;SDS011;27321;50.816;6.054;2023-04-15T03:24:25;4.50;;;1.10;;
41627;SDS011;27321;50.816;6.054;2023-04-15T03:27:31;1.33;;;1.00;;
41627;SDS011;27321;50.816;6.054;2023-04-15T03:30:35;2.07;;;1.00;;
41627;SDS011;27321;50.816;6.054;2023-04-15T03:33:38;1.30;;;0.90;;
41627;SDS011;27321;50.816;6.054;2023-04-15T03:36:40;1.87;;;0.90;;
41627;SDS011;27321;50.816;6.054;2023-04-15T03:39:42;1.50;;;1.00;;
41627;SDS011;27321;50.816;6.054;2023-04-15T03:42:44;1.63;;;1.07;;
41627;SDS011;27321;50.816;6.054;2023-04-15T03:45:46;2.27;;;1.13;;
41627;SDS011;27321;50.816;6.054;2023-04-15T03:48:48;1.93;;;1.13;;
41627;SDS011;27321;50.816;6.054;2023-04-15T03:51:51;2.63;;;1.00;;
41627;SDS011;27321;50.816;6.054;2023-04-15T03:54:53;1.73;;;0.80;;
41627;SDS011;27321;50.816;6.054;2023-04-15T03:57:55;1.63;;;0.97;;
41627;SDS011;27321;50.816;6.054;2023-04-15T04:00:57;1.90;;;1.10;;
41627;SDS011;27321;50.816;6.054;2023-04-15T04:03:59;1.70;;;1.27;;
41627;SDS011;27321;50.816;6.054;2023-04-15T04:07:02;3.03;;;1.00;;
41627;SDS011;27321;50.816;6.054;2023-04-15T04:10:05;1.70;;;0.93;;
41627;SDS011;27321;50.816;6.054;2023-04-15T04:13:08;2.33;;;1.00;;
41627;SDS011;27321;50.816;6.054;2023-04-15T04:16:10;2.30;;;0.90;;
41627;SDS011;27321;50.816;6.054;2023-04-15T04:19:12;1.10;;;0.90;;
41627;SDS011;27321;50.816;6.054;2023-04-15T04:22:15;2.43;;;0.90;;
41627;SDS011;27321;50.816;6.054;2023-04-15T04:25:17;2.30;;;0.80;;
41627;SDS011;27321;50.816;6.054;2023-04-15T04:28:19;1.40;;;0.80;;
41627;SDS011;27321;50.816;6.054;2023-04-15T04:31:22;1.10;;;0.80;;
41627;SDS011;27321;50.816;6.054;2023-04-15T04:34:24;2.20;;;1.07;;
41627;SDS011;27321;50.816;6.054;2023-04-15T04:37:26;2.67;;;1.17;;
41627;SDS011;27321;50.816;6.054;2023-04-15T04:40:28;3.93;;;1.20;;
41627;SDS011;27321;50.816;6.054;2023-04-15T04:43:30;2.23;;;0.97;;
41627;SDS011;27321;50.816;6.054;2023-04-15T04:46:33;2.93;;;1.20;;
41627;SDS011;27321;50.816;6.054;2023-04-15T04:49:36;1.60;;;0.93;;
41627;SDS011;27321;50.816;6.054;2023-04-15T04:52:38;1.40;;;0.80;;
41627;SDS011;27321;50.816;6.054;2023-04-15T04:55:41;1.07;;;0.80;;
41627;SDS011;27321;50.816;6.054;2023-04-15T04:58:43;1.00;;;0.80;;
41627;SDS011;27321;50.816;6.054;2023-04-15T05:01:45;1.53;;;0.80;;
41627;SDS011;27321;50.816;6.054;2023-04-15T05:04:47;1.87;;;1.10;;
41627;SDS011;27321;50.816;6.054;2023-04-15T05:07:50;2.50;;;1.50;;
41627;SDS011;27321;50.816;6.054;2023-04-15T05:10:52;2.20;;;1.10;;
41627;SDS011;27321;50.816;6.054;2023-04-15T05:13:55;0.97;;;0.83;;
41627;SDS011;27321;50.816;6.054;2023-04-15T05:16:58;1.10;;;0.70;;
41627;SDS011;27321;50.816;6.054;2023-04-15T05:20:01;1.40;;;0.70;;
41627;SDS011;27321;50.816;6.054;2023-04-15T05:23:04;2.33;;;0.80;;
41627;SDS011;27321;50.816;6.054;2023-04-15T05:26:07;3.50;;;1.23;;
41627;SDS011;27321;50.816;6.054;2023-04-15T05:29:09;4.43;;;0.70;;
41627;SDS011;27321;50.816;6.054;2023-04-15T05:32:11;2.03;;;0.97;;
41627;SDS011;27321;50.816;6.054;2023-04-15T05:35:14;1.23;;;1.07;;
41627;SDS011;27321;50.816;6.054;2023-04-15T05:38:16;2.07;;;1.43;;
41627;SDS011;27321;50.816;6.054;2023-04-15T05:41:18;2.17;;;1.30;;
41627;SDS011;27321;50.816;6.054;2023-04-15T05:44:20;2.57;;;1.63;;
41627;SDS011;27321;50.816;6.054;2023-04-15T05:47:22;5.30;;;1.47;;
41627;SDS011;27321;50.816;6.054;2023-04-15T05:50:24;2.73;;;1.30;;
41627;SDS011;27321;50.816;6.054;2023-04-15T05:53:26;2.17;;;1.20;;
41627;SDS011;27321;50.816;6.054;2023-04-15T05:56:29;3.33;;;1.70;;
41627;SDS011;27321;50.816;6.054;2023-04-15T05:59:31;3.33;;;1.70;;
41627;SDS011;27321;50.816;6.054;2023-04-15T06:02:33;2.17;;;1.57;;
41627;SDS011;27321;50.816;6.054;2023-04-15T06:05:35;4.20;;;1.77;;
41627;SDS011;27321;50.816;6.054;2023-04-15T06:08:37;3.50;;;1.57;;
41627;SDS011;27321;50.816;6.054;2023-04-15T06:11:39;2.97;;;1.77;;
41627;SDS011;27321;50.816;6.054;2023-04-15T06:14:42;2.17;;;1.57;;
41627;SDS011;27321;50.816;6.054;2023-04-15T06:17:44;3.33;;;1.40;;
41627;SDS011;27321;50.816;6.054;2023-04-15T06:20:46;2.13;;;1.50;;
41627;SDS011;27321;50.816;6.054;2023-04-15T06:23:48;2.73;;;1.57;;
41627;SDS011;27321;50.816;6.054;2023-04-15T06:26:51;3.23;;;1.47;;
41627;SDS011;27321;50.816;6.054;2023-04-15T06:29:53;3.13;;;1.70;;
41627;SDS011;27321;50.816;6.054;2023-04-15T06:32:55;4.90;;;2.00;;
41627;SDS011;27321;50.816;6.054;2023-04-15T06:35:57;2.53;;;1.60;;
41627;SDS011;27321;50.816;6.054;2023-04-15T06:38:59;2.57;;;1.67;;
41627;SDS011;27321;50.816;6.054;2023-04-15T06:42:02;1.83;;;1.47;;
41627;SDS011;27321;50.816;6.054;2023-04-15T06:45:04;2.50;;;1.70;;
41627;SDS011;27321;50.816;6.054;2023-04-15T06:48:07;3.03;;;1.73;;
41627;SDS011;27321;50.816;6.054;2023-04-15T06:51:09;2.17;;;1.57;;
41627;SDS011;27321;50.816;6.054;2023-04-15T06:54:12;3.30;;;1.90;;
41627;SDS011;27321;50.816;6.054;2023-04-15T06:57:14;3.77;;;2.00;;
41627;SDS011;27321;50.816;6.054;2023-04-15T07:00:16;4.67;;;2.10;;
41627;SDS011;27321;50.816;6.054;2023-04-15T07:03:19;3.53;;;1.87;;
41627;SDS011;27321;50.816;6.054;2023-04-15T07:06:21;5.90;;;2.50;;
41627;SDS011;27321;50.816;6.054;2023-04-15T07:09:23;4.13;;;2.47;;
41627;SDS011;27321;50.816;6.054;2023-04-15T07:12:26;3.83;;;2.00;;
41627;SDS011;27321;50.816;6.054;2023-04-15T07:15:28;4.30;;;2.13;;
41627;SDS011;27321;50.816;6.054;2023-04-15T07:18:30;4.43;;;2.20;;
41627;SDS011;27321;50.816;6.054;2023-04-15T07:21:33;5.40;;;2.20;;
41627;SDS011;27321;50.816;6.054;2023-04-15T07:24:35;4.07;;;2.53;;
41627;SDS011;27321;50.816;6.054;2023-04-15T07:27:37;6.03;;;2.80;;
41627;SDS011;27321;50.816;6.054;2023-04-15T07:30:40;6.47;;;2.93;;
41627;SDS011;27321;50.816;6.054;2023-04-15T07:33:42;6.00;;;2.83;;
41627;SDS011;27321;50.816;6.054;2023-04-15T07:36:46;5.33;;;2.97;;
41627;SDS011;27321;50.816;6.054;2023-04-15T07:39:51;4.60;;;2.83;;
41627;SDS011;27321;50.816;6.054;2023-04-15T07:42:54;4.87;;;3.40;;
41627;SDS011;27321;50.816;6.054;2023-04-15T07:45:57;6.93;;;3.23;;
41627;SDS011;27321;50.816;6.054;2023-04-15T07:49:00;7.20;;;3.53;;
41627;SDS011;27321;50.816;6.054;2023-04-15T07:52:02;7.53;;;3.80;;
41627;SDS011;27321;50.816;6.054;2023-04-15T07:55:05;5.87;;;3.83;;
41627;SDS011;27321;50.816;6.054;2023-04-15T07:58:09;4.63;;;3.60;;
41627;SDS011;27321;50.816;6.054;2023-04-15T08:01:11;4.30;;;3.23;;
41627;SDS011;27321;50.816;6.054;2023-04-15T08:04:13;5.37;;;4.17;;
41627;SDS011;27321;50.816;6.054;2023-04-15T08:07:16;6.47;;;3.93;;
41627;SDS011;27321;50.816;6.054;2023-04-15T08:10:18;8.50;;;5.00;;
41627;SDS011;27321;50.816;6.054;2023-04-15T08:13:20;11.27;;;4.90;;
41627;SDS011;27321;50.816;6.054;2023-04-15T08:16:24;8.47;;;5.17;;
41627;SDS011;27321;50.816;6.054;2023-04-15T08:19:28;7.97;;;4.37;;
41627;SDS011;27321;50.816;6.054;2023-04-15T08:22:31;9.20;;;4.53;;
41627;SDS011;27321;50.816;6.054;2023-04-15T08:25:33;7.97;;;5.63;;
41627;SDS011;27321;50.816;6.054;2023-04-15T08:28:37;8.33;;;5.20;;
41627;SDS011;27321;50.816;6.054;2023-04-15T08:31:40;7.30;;;5.50;;
41627;SDS011;27321;50.816;6.054;2023-04-15T08:34:42;8.03;;;5.40;;
41627;SDS011;27321;50.816;6.054;2023-04-15T08:37:45;7.90;;;5.67;;
41627;SDS011;27321;50.816;6.054;2023-04-15T08:40:47;7.63;;;5.60;;
41627;SDS011;27321;50.816;6.054;2023-04-15T08:43:53;10.27;;;5.30;;
41627;SDS011;27321;50.816;6.054;2023-04-15T08:47:00;7.67;;;5.00;;
41627;SDS011;27321;50.816;6.054;2023-04-15T08:50:03;5.93;;;5.10;;
41627;SDS011;27321;50.816;6.054;2023-04-15T08:53:10;5.93;;;5.17;;
41627;SDS011;27321;50.816;6.054;2023-04-15T08:56:13;10.47;;;5.77;;
41627;SDS011;27321;50.816;6.054;2023-04-15T08:59:20;7.17;;;5.93;;
41627;SDS011;27321;50.816;6.054;2023-04-15T09:02:23;8.10;;;6.10;;
41627;SDS011;27321;50.816;6.054;2023-04-15T09:05:29;9.73;;;6.53;;
41627;SDS011;27321;50.816;6.054;2023-04-15T09:08:35;8.23;;;6.27;;
41627;SDS011;27321;50.816;6.054;2023-04-15T09:11:39;7.43;;;5.97;;
41627;SDS011;27321;50.816;6.054;2023-04-15T09:14:52;6.23;;;5.23;;
41627;SDS011;27321;50.816;6.054;2023-04-15T09:17:55;7.27;;;5.53;;
41627;SDS011;27321;50.816;6.054;2023-04-15T09:24:09;10.07;;;5.07;;
41627;SDS011;27321;50.816;6.054;2023-04-15T09:27:11;6.37;;;4.57;;
41627;SDS011;27321;50.816;6.054;2023-04-15T09:30:18;7.23;;;5.33;;
41627;SDS011;27321;50.816;6.054;2023-04-15T09:33:25;6.70;;;4.87;;
41627;SDS011;27321;50.816;6.054;2023-04-15T09:36:52;5.53;;;4.07;;
41627;SDS011;27321;50.816;6.054;2023-04-15T09:39:55;7.10;;;3.93;;
41627;SDS011;27321;50.816;6.054;2023-04-15T09:43:12;4.27;;;3.30;;
41627;SDS011;27321;50.816;6.054;2023-04-15T09:46:17;6.07;;;3.80;;
41627;SDS011;27321;50.816;6.054;2023-04-15T09:49:21;4.67;;;3.43;;
41627;SDS011;27321;50.816;6.054;2023-04-15T09:52:25;6.97;;;3.77;;
41627;SDS011;27321;50.816;6.054;2023-04-15T09:55:29;6.13;;;4.20;;
41627;SDS011;27321;50.816;6.054;2023-04-15T09:58:36;5.80;;;3.80;;
41627;SDS011;27321;50.816;6.054;2023-04-15T10:01:39;5.37;;;3.90;;
41627;SDS011;27321;50.816;6.054;2023-04-15T10:04:43;6.00;;;3.70;;
41627;SDS011;27321;50.816;6.054;2023-04-15T10:07:46;7.33;;;3.97;;
41627;SDS011;27321;50.816;6.054;2023-04-15T10:10:49;8.70;;;4.83;;
41627;SDS011;27321;50.816;6.054;2023-04-15T10:13:52;5.67;;;4.20;;
41627;SDS011;27321;50.816;6.054;2023-04-15T10:16:56;7.63;;;4.27;;
41627;SDS011;27321;50.816;6.054;2023-04-15T10:20:03;5.37;;;3.90;;
41627;SDS011;27321;50.816;6.054;2023-04-15T10:23:07;7.57;;;4.90;;
41627;SDS011;27321;50.816;6.054;2023-04-15T10:26:10;5.30;;;4.37;;
41627;SDS011;27321;50.816;6.054;2023-04-15T10:29:15;4.90;;;3.20;;
41627;SDS011;27321;50.816;6.054;2023-04-15T10:32:18;6.10;;;3.93;;
41627;SDS011;27321;50.816;6.054;2023-04-15T10:35:22;6.57;;;3.73;;
41627;SDS011;27321;50.816;6.054;2023-04-15T10:38:41;6.23;;;3.97;;
41627;SDS011;27321;50.816;6.054;2023-04-15T10:45:07;4.20;;;3.10;;
41627;SDS011;27321;50.816;6.054;2023-04-15T10:48:18;5.07;;;3.13;;
41627;SDS011;27321;50.816;6.054;2023-04-15T10:51:30;3.47;;;3.10;;
41627;SDS011;27321;50.816;6.054;2023-04-15T10:54:32;3.47;;;2.90;;
41627;SDS011;27321;50.816;6.054;2023-04-15T10:57:37;3.47;;;2.83;;
41627;SDS011;27321;50.816;6.054;2023-04-15T11:00:41;4.67;;;3.43;;
41627;SDS011;27321;50.816;6.054;2023-04-15T11:03:54;3.87;;;2.60;;
41627;SDS011;27321;50.816;6.054;2023-04-15T11:07:06;2.17;;;1.77;;
41627;SDS011;27321;50.816;6.054;2023-04-15T11:13:19;3.30;;;2.20;;
41627;SDS011;27321;50.816;6.054;2023-04-15T11:16:23;4.00;;;2.10;;
41627;SDS011;27321;50.816;6.054;2023-04-15T11:19:25;4.07;;;2.23;;
41627;SDS011;27321;50.816;6.054;2023-04-15T11:22:27;2.40;;;1.88;;
41627;SDS011;27321;50.816;6.054;2023-04-15T11:25:31;4.32;;;1.92;;
41627;SDS011;27321;50.816;6.054;2023-04-15T11:28:35;2.00;;;1.80;;
41627;SDS011;27321;50.816;6.054;2023-04-15T11:31:46;2.10;;;1.90;;
41627;SDS011;27321;50.816;6.054;2023-04-15T11:34:50;2.88;;;1.88;;
41627;SDS011;27321;50.816;6.054;2023-04-15T11:37:52;2.55;;;2.08;;
41627;SDS011;27321;50.816;6.054;2023-04-15T11:41:01;2.30;;;1.67;;
41627;SDS011;27321;50.816;6.054;2023-04-15T11:44:14;2.10;;;1.90;;
41627;SDS011;27321;50.816;6.054;2023-04-15T11:47:23;2.65;;;2.10;;
41627;SDS011;27321;50.816;6.054;2023-04-15T11:50:25;3.03;;;2.72;;
41627;SDS011;27321;50.816;6.054;2023-04-15T11:53:36;2.85;;;2.50;;
41627;SDS011;27321;50.816;6.054;2023-04-15T11:56:54;2.50;;;1.80;;
41627;SDS011;27321;50.816;6.054;2023-04-15T11:59:56;2.42;;;2.22;;
41627;SDS011;27321;50.816;6.054;2023-04-15T12:03:15;2.50;;;1.98;;
41627;SDS011;27321;50.816;6.054;2023-04-15T12:06:22;2.40;;;2.13;;
41627;SDS011;27321;50.816;6.054;2023-04-15T12:09:24;2.45;;;2.25;;
41627;SDS011;27321;50.816;6.054;2023-04-15T12:12:26;3.60;;;2.50;;
41627;SDS011;27321;50.816;6.054;2023-04-15T12:15:28;3.92;;;3.00;;
41627;SDS011;27321;50.816;6.054;2023-04-15T12:18:29;4.07;;;2.88;;
41627;SDS011;27321;50.816;6.054;2023-04-15T12:21:34;3.97;;;2.78;;
41627;SDS011;27321;50.816;6.054;2023-04-15T12:24:38;3.10;;;2.80;;
41627;SDS011;27321;50.816;6.054;2023-04-15T12:30:49;3.28;;;2.97;;
41627;SDS011;27321;50.816;6.054;2023-04-15T12:33:54;3.78;;;2.45;;
41627;SDS011;27321;50.816;6.054;2023-04-15T12:36:56;3.90;;;2.58;;
41627;SDS011;27321;50.816;6.054;2023-04-15T12:39:59;3.03;;;2.70;;
41627;SDS011;27321;50.816;6.054;2023-04-15T12:43:00;3.20;;;2.78;;
41627;SDS011;27321;50.816;6.054;2023-04-15T12:46:01;2.95;;;2.63;;
41627;SDS011;27321;50.816;6.054;2023-04-15T12:49:02;3.80;;;2.65;;
41627;SDS011;27321;50.816;6.054;2023-04-15T12:52:03;3.53;;;2.38;;
41627;SDS011;27321;50.816;6.054;2023-04-15T12:55:04;3.97;;;2.83;;
41627;SDS011;27321;50.816;6.054;2023-04-15T12:58:06;3.63;;;2.70;;
41627;SDS011;27321;50.816;6.054;2023-04-15T13:01:08;4.05;;;2.90;;
41627;SDS011;27321;50.816;6.054;2023-04-15T13:04:10;3.28;;;2.75;;
41627;SDS011;27321;50.816;6.054;2023-04-15T13:07:10;3.97;;;2.97;;
41627;SDS011;27321;50.816;6.054;2023-04-15T13:10:13;3.30;;;2.53;;
41627;SDS011;27321;50.816;6.054;2023-04-15T13:13:14;3.00;;;2.03;;
41627;SDS011;27321;50.816;6.054;2023-04-15T13:16:15;3.45;;;2.55;;
41627;SDS011;27321;50.816;6.054;2023-04-15T13:19:16;3.53;;;2.17;;
41627;SDS011;27321;50.816;6.054;2023-04-15T13:22:17;2.72;;;2.53;;
41627;SDS011;27321;50.816;6.054;2023-04-15T13:25:18;5.70;;;2.88;;
41627;SDS011;27321;50.816;6.054;2023-04-15T13:28:19;4.50;;;3.00;;
41627;SDS011;27321;50.816;6.054;2023-04-15T13:31:20;3.83;;;2.90;;
41627;SDS011;27321;50.816;6.054;2023-04-15T13:34:21;3.67;;;2.85;;
41627;SDS011;27321;50.816;6.054;2023-04-15T13:37:26;4.05;;;3.40;;
41627;SDS011;27321;50.816;6.054;2023-04-15T13:40:29;2.70;;;2.50;;
41627;SDS011;27321;50.816;6.054;2023-04-15T13:43:30;2.80;;;2.55;;
41627;SDS011;27321;50.816;6.054;2023-04-15T13:46:33;2.30;;;2.10;;
41627;SDS011;27321;50.816;6.054;2023-04-15T13:49:34;2.72;;;2.30;;
41627;SDS011;27321;50.816;6.054;2023-04-15T13:52:35;2.33;;;2.08;;
41627;SDS011;27321;50.816;6.054;2023-04-15T13:55:36;3.05;;;2.55;;
41627;SDS011;27321;50.816;6.054;2023-04-15T13:58:40;2.80;;;2.50;;
41627;SDS011;27321;50.816;6.054;2023-04-15T14:01:41;3.20;;;2.42;;
41627;SDS011;27321;50.816;6.054;2023-04-15T14:04:43;2.67;;;2.13;;
41627;SDS011;27321;50.816;6.054;2023-04-15T14:07:44;2.50;;;2.30;;
41627;SDS011;27321;50.816;6.054;2023-04-15T14:10:45;2.45;;;2.15;;
41627;SDS011;27321;50.816;6.054;2023-04-15T14:13:48;2.67;;;2.30;;
41627;SDS011;27321;50.816;6.054;2023-04-15T14:16:49;2.47;;;2.00;;
41627;SDS011;27321;50.816;6.054;2023-04-15T14:19:50;2.38;;;2.10;;
41627;SDS011;27321;50.816;6.054;2023-04-15T14:22:51;2.60;;;2.30;;
41627;SDS011;27321;50.816;6.054;2023-04-15T14:25:52;2.75;;;2.47;;
41627;SDS011;27321;50.816;6.054;2023-04-15T14:28:54;2.63;;;2.22;;
41627;SDS011;27321;50.816;6.054;2023-04-15T14:31:54;2.08;;;1.88;;
41627;SDS011;27321;50.816;6.054;2023-04-15T14:37:57;4.22;;;1.88;;
41627;SDS011;27321;50.816;6.054;2023-04-15T14:40:58;2.15;;;1.58;;
41627;SDS011;27321;50.816;6.054;2023-04-15T14:44:00;2.38;;;2.13;;
41627;SDS011;27321;50.816;6.054;2023-04-15T14:47:01;2.75;;;2.10;;
41627;SDS011;27321;50.816;6.054;2023-04-15T14:50:02;2.03;;;1.58;;
41627;SDS011;27321;50.816;6.054;2023-04-15T14:56:05;1.92;;;1.63;;
41627;SDS011;27321;50.816;6.054;2023-04-15T14:59:07;1.70;;;1.60;;
41627;SDS011;27321;50.816;6.054;2023-04-15T15:02:08;1.70;;;1.60;;
41627;SDS011;27321;50.816;6.054;2023-04-15T15:05:09;1.98;;;1.77;;
41627;SDS011;27321;50.816;6.054;2023-04-15T15:08:11;2.55;;;1.60;;
41627;SDS011;27321;50.816;6.054;2023-04-15T15:11:13;3.33;;;1.63;;
41627;SDS011;27321;50.816;6.054;2023-04-15T15:14:14;2.33;;;1.75;;
41627;SDS011;27321;50.816;6.054;2023-04-15T15:17:14;2.65;;;1.70;;
41627;SDS011;27321;50.816;6.054;2023-04-15T15:20:16;1.75;;;1.65;;
41627;SDS011;27321;50.816;6.054;2023-04-15T15:23:18;3.05;;;2.10;;
41627;SDS011;27321;50.816;6.054;2023-04-15T15:26:19;2.30;;;2.10;;
41627;SDS011;27321;50.816;6.054;2023-04-15T15:29:20;4.45;;;2.00;;
41627;SDS011;27321;50.816;6.054;2023-04-15T15:35:22;3.22;;;2.08;;
41627;SDS011;27321;50.816;6.054;2023-04-15T15:38:25;2.85;;;2.10;;
41627;SDS011;27321;50.816;6.054;2023-04-15T15:41:27;2.50;;;1.77;;
41627;SDS011;27321;50.816;6.054;2023-04-15T15:44:28;3.97;;;2.17;;
41627;SDS011;27321;50.816;6.054;2023-04-15T15:47:28;3.05;;;1.77;;
41627;SDS011;27321;50.816;6.054;2023-04-15T15:50:29;2.88;;;1.77;;
41627;SDS011;27321;50.816;6.054;2023-04-15T15:53:31;2.00;;;1.80;;
41627;SDS011;27321;50.816;6.054;2023-04-15T15:56:32;4.63;;;1.83;;
41627;SDS011;27321;50.816;6.054;2023-04-15T15:59:34;2.23;;;1.70;;
41627;SDS011;27321;50.816;6.054;2023-04-15T16:02:35;3.03;;;1.85;;
41627;SDS011;27321;50.816;6.054;2023-04-15T16:08:38;3.70;;;1.42;;
41627;SDS011;27321;50.816;6.054;2023-04-15T16:11:39;1.50;;;1.40;;
41627;SDS011;27321;50.816;6.054;2023-04-15T16:14:41;2.60;;;1.58;;
41627;SDS011;27321;50.816;6.054;2023-04-15T16:17:51;1.73;;;1.33;;
41627;SDS011;27321;50.816;6.054;2023-04-15T16:20:59;3.72;;;1.60;;
41627;SDS011;27321;50.816;6.054;2023-04-15T16:24:05;2.13;;;1.63;;
41627;SDS011;27321;50.816;6.054;2023-04-15T16:27:09;4.32;;;1.35;;
41627;SDS011;27321;50.816;6.054;2023-04-15T16:30:27;3.00;;;2.08;;
41627;SDS011;27321;50.816;6.054;2023-04-15T16:33:28;2.10;;;1.90;;
41627;SDS011;27321;50.816;6.054;2023-04-15T16:36:29;2.00;;;1.80;;
41627;SDS011;27321;50.816;6.054;2023-04-15T16:39:31;2.53;;;2.05;;
41627;SDS011;27321;50.816;6.054;2023-04-15T16:42:32;1.55;;;1.42;;
41627;SDS011;27321;50.816;6.054;2023-04-15T16:45:33;1.45;;;1.30;;
41627;SDS011;27321;50.816;6.054;2023-04-15T16:48:34;1.30;;;1.20;;
41627;SDS011;27321;50.816;6.054;2023-04-15T16:51:35;2.40;;;0.90;;
41627;SDS011;27321;50.816;6.054;2023-04-15T16:54:36;4.25;;;1.10;;
41627;SDS011;27321;50.816;6.054;2023-04-15T16:57:40;1.67;;;1.10;;
41627;SDS011;27321;50.816;6.054;2023-04-15T17:00:43;3.13;;;1.20;;
41627;SDS011;27321;50.816;6.054;2023-04-15T17:03:56;1.77;;;1.10;;
41627;SDS011;27321;50.816;6.054;2023-04-15T17:07:21;1.40;;;1.00;;
41627;SDS011;27321;50.816;6.054;2023-04-15T17:10:23;2.05;;;1.10;;
41627;SDS011;27321;50.816;6.054;2023-04-15T17:13:24;1.02;;;0.93;;
41627;SDS011;27321;50.816;6.054;2023-04-15T17:19:27;2.07;;;0.87;;
41627;SDS011;27321;50.816;6.054;2023-04-15T17:22:37;1.10;;;0.70;;
41627;SDS011;27321;50.816;6.054;2023-04-15T17:25:39;3.85;;;1.00;;
41627;SDS011;27321;50.816;6.054;2023-04-15T17:28:40;1.20;;;0.95;;
41627;SDS011;27321;50.816;6.054;2023-04-15T17:31:46;1.83;;;1.20;;
41627;SDS011;27321;50.816;6.054;2023-04-15T17:35:07;2.10;;;0.90;;
41627;SDS011;27321;50.816;6.054;2023-04-15T17:38:28;4.72;;;1.00;;
41627;SDS011;27321;50.816;6.054;2023-04-15T17:41:49;1.15;;;0.95;;
41627;SDS011;27321;50.816;6.054;2023-04-15T17:45:10;2.70;;;1.10;;
41627;SDS011;27321;50.816;6.054;2023-04-15T17:48:32;3.97;;;1.10;;
41627;SDS011;27321;50.816;6.054;2023-04-15T17:51:53;1.15;;;1.02;;
41627;SDS011;27321;50.816;6.054;2023-04-15T17:55:14;1.92;;;1.35;;
41627;SDS011;27321;50.816;6.054;2023-04-15T17:58:36;2.23;;;1.13;;
41627;SDS011;27321;50.816;6.054;2023-04-15T18:01:58;1.93;;;1.40;;
41627;SDS011;27321;50.816;6.054;2023-04-15T18:05:19;2.47;;;1.40;;
41627;SDS011;27321;50.816;6.054;2023-04-15T18:08:41;1.10;;;1.00;;
41627;SDS011;27321;50.816;6.054;2023-04-15T18:12:02;2.47;;;1.03;;
41627;SDS011;27321;50.816;6.054;2023-04-15T18:15:25;2.10;;;1.50;;
41627;SDS011;27321;50.816;6.054;2023-04-15T18:18:46;4.90;;;1.60;;
41627;SDS011;27321;50.816;6.054;2023-04-15T18:21:47;4.53;;;1.60;;
41627;SDS011;27321;50.816;6.054;2023-04-15T18:24:48;2.17;;;1.58;;
41627;SDS011;27321;50.816;6.054;2023-04-15T18:27:49;1.83;;;1.50;;
41627;SDS011;27321;50.816;6.054;2023-04-15T18:30:50;3.15;;;1.77;;
41627;SDS011;27321;50.816;6.054;2023-04-15T18:33:51;3.70;;;1.73;;
41627;SDS011;27321;50.816;6.054;2023-04-15T18:36:52;2.03;;;1.55;;
41627;SDS011;27321;50.816;6.054;2023-04-15T18:39:57;4.13;;;2.03;;
41627;SDS011;27321;50.816;6.054;2023-04-15T18:42:58;2.67;;;1.83;;
41627;SDS011;27321;50.816;6.054;2023-04-15T18:46:00;3.60;;;1.60;;
41627;SDS011;27321;50.816;6.054;2023-04-15T18:49:03;4.43;;;2.33;;
41627;SDS011;27321;50.816;6.054;2023-04-15T18:52:04;4.40;;;1.73;;
41627;SDS011;27321;50.816;6.054;2023-04-15T18:58:06;2.90;;;2.00;;
41627;SDS011;27321;50.816;6.054;2023-04-15T19:01:08;4.60;;;2.10;;
41627;SDS011;27321;50.816;6.054;2023-04-15T19:04:08;3.40;;;2.17;;